sensor_id;sensor_type;location;lat;lon;timestamp;temperature;humidity
30572;DHT22;17348;50.948;10.696;2023-07-13T00:00:53;17.70;99.90
30572;DHT22;17348;50.948;10.696;2023-07-13T00:03:57;17.70;99.90
30572;DHT22;17348;50.948;10.696;2023-07-13T00:07:00;17.60;99.90
30572;DHT22;17348;50.948;10.696;2023-07-13T00:10:04;17.60;99.90
30572;DHT22;17348;50.948;10.696;2023-07-13T00:13:08;17.60;99.90
30572;DHT22;17348;50.948;10.696;2023-07-13T00:16:11;17.60;99.90
30572;DHT22;17348;50.948;10.696;2023-07-13T00:19:14;17.60;99.90
30572;DHT22;17348;50.948;10.696;2023-07-13T00:22:17;17.60;99.90
30572;DHT22;17348;50.948;10.696;2023-07-13T00:25:21;17.60;99.90
30572;DHT22;17348;50.948;10.696;2023-07-13T00:28:25;17.50;99.90
30572;DHT22;17348;50.948;10.696;2023-07-13T00:31:27;17.50;99.90
30572;DHT22;17348;50.948;10.696;2023-07-13T00:34:29;17.50;99.90
30572;DHT22;17348;50.948;10.696;2023-07-13T00:37:32;17.50;99.90
30572;DHT22;17348;50.948;10.696;2023-07-13T00:40:38;17.50;99.90
30572;DHT22;17348;50.948;10.696;2023-07-13T00:43:40;17.50;99.90
30572;DHT22;17348;50.948;10.696;2023-07-13T00:46:43;17.50;99.90
30572;DHT22;17348;50.948;10.696;2023-07-13T00:49:46;17.50;99.90
30572;DHT22;17348;50.948;10.696;2023-07-13T00:52:53;17.60;99.90
30572;DHT22;17348;50.948;10.696;2023-07-13T00:55:57;17.50;99.90
30572;DHT22;17348;50.948;10.696;2023-07-13T00:59:00;17.60;99.90
30572;DHT22;17348;50.948;10.696;2023-07-13T01:02:04;17.60;99.90
30572;DHT22;17348;50.948;10.696;2023-07-13T01:05:09;17.60;99.90
30572;DHT22;17348;50.948;10.696;2023-07-13T01:08:11;17.60;99.90
30572;DHT22;17348;50.948;10.696;2023-07-13T01:11:18;17.60;99.90
30572;DHT22;17348;50.948;10.696;2023-07-13T01:14:21;17.70;99.90
30572;DHT22;17348;50.948;10.696;2023-07-13T01:17:23;17.60;99.90
30572;DHT22;17348;50.948;10.696;2023-07-13T01:20:26;17.50;99.90
30572;DHT22;17348;50.948;10.696;2023-07-13T01:23:30;17.40;99.90
30572;DHT22;17348;50.948;10.696;2023-07-13T01:26:33;17.30;99.90
30572;DHT22;17348;50.948;10.696;2023-07-13T01:29:37;17.30;99.90
30572;DHT22;17348;50.948;10.696;2023-07-13T01:32:42;17.30;99.90
30572;DHT22;17348;50.948;10.696;2023-07-13T01:35:46;17.30;99.90
30572;DHT22;17348;50.948;10.696;2023-07-13T01:38:49;17.30;99.90
30572;DHT22;17348;50.948;10.696;2023-07-13T01:41:52;17.30;99.90
30572;DHT22;17348;50.948;10.696;2023-07-13T01:44:54;17.30;99.90
30572;DHT22;17348;50.948;10.696;2023-07-13T01:47:56;17.30;99.90
30572;DHT22;17348;50.948;10.696;2023-07-13T01:50:59;17.40;99.90
30572;DHT22;17348;50.948;10.696;2023-07-13T01:54:03;17.50;99.90
30572;DHT22;17348;50.948;10.696;2023-07-13T01:57:05;17.60;99.90
30572;DHT22;17348;50.948;10.696;2023-07-13T02:00:10;17.60;99.90
30572;DHT22;17348;50.948;10.696;2023-07-13T02:03:12;17.70;99.90
30572;DHT22;17348;50.948;10.696;2023-07-13T02:06:18;17.80;99.90
30572;DHT22;17348;50.948;10.696;2023-07-13T02:09:22;17.80;99.90
30572;DHT22;17348;50.948;10.696;2023-07-13T02:12:24;17.80;99.90
30572;DHT22;17348;50.948;10.696;2023-07-13T02:15:27;17.80;99.90
30572;DHT22;17348;50.948;10.696;2023-07-13T02:18:29;17.70;99.90
30572;DHT22;17348;50.948;10.696;2023-07-13T02:21:31;17.70;99.90
30572;DHT22;17348;50.948;10.696;2023-07-13T02:24:35;17.60;99.90
30572;DHT22;17348;50.948;10.696;2023-07-13T02:27:39;17.50;99.90
30572;DHT22;17348;50.948;10.696;2023-07-13T02:30:41;17.50;99.90
30572;DHT22;17348;50.948;10.696;2023-07-13T02:33:43;17.40;99.90
30572;DHT22;17348;50.948;10.696;2023-07-13T02:36:46;17.30;99.90
30572;DHT22;17348;50.948;10.696;2023-07-13T02:39:49;17.30;99.90
30572;DHT22;17348;50.948;10.696;2023-07-13T02:42:52;17.20;99.90
30572;DHT22;17348;50.948;10.696;2023-07-13T02:45:56;17.20;99.90
30572;DHT22;17348;50.948;10.696;2023-07-13T02:49:01;17.20;99.90
30572;DHT22;17348;50.948;10.696;2023-07-13T02:52:04;17.20;99.90
30572;DHT22;17348;50.948;10.696;2023-07-13T02:55:09;17.20;99.90
30572;DHT22;17348;50.948;10.696;2023-07-13T02:58:11;17.20;99.90
30572;DHT22;17348;50.948;10.696;2023-07-13T03:01:17;17.20;99.90
30572;DHT22;17348;50.948;10.696;2023-07-13T03:04:20;17.20;99.90
30572;DHT22;17348;50.948;10.696;2023-07-13T03:07:22;17.20;99.90
30572;DHT22;17348;50.948;10.696;2023-07-13T03:10:27;17.10;99.90
30572;DHT22;17348;50.948;10.696;2023-07-13T03:13:29;17.10;99.90
30572;DHT22;17348;50.948;10.696;2023-07-13T03:16:31;17.10;99.90
30572;DHT22;17348;50.948;10.696;2023-07-13T03:19:34;17.10;99.90
30572;DHT22;17348;50.948;10.696;2023-07-13T03:22:36;17.00;99.90
30572;DHT22;17348;50.948;10.696;2023-07-13T03:25:39;17.00;99.90
30572;DHT22;17348;50.948;10.696;2023-07-13T03:28:42;17.00;99.90
30572;DHT22;17348;50.948;10.696;2023-07-13T03:31:45;16.90;99.90
30572;DHT22;17348;50.948;10.696;2023-07-13T03:34:47;16.90;99.90
30572;DHT22;17348;50.948;10.696;2023-07-13T03:37:50;16.80;99.90
30572;DHT22;17348;50.948;10.696;2023-07-13T03:40:53;16.80;99.90
30572;DHT22;17348;50.948;10.696;2023-07-13T03:43:56;16.70;99.90
30572;DHT22;17348;50.948;10.696;2023-07-13T03:46:58;16.60;99.90
30572;DHT22;17348;50.948;10.696;2023-07-13T03:50:00;16.60;99.90
30572;DHT22;17348;50.948;10.696;2023-07-13T03:53:03;16.60;99.90
30572;DHT22;17348;50.948;10.696;2023-07-13T03:56:07;16.60;99.90
30572;DHT22;17348;50.948;10.696;2023-07-13T03:59:10;16.60;99.90
30572;DHT22;17348;50.948;10.696;2023-07-13T04:02:12;16.60;99.90
30572;DHT22;17348;50.948;10.696;2023-07-13T04:05:14;16.60;99.90
30572;DHT22;17348;50.948;10.696;2023-07-13T04:08:17;16.50;99.90
30572;DHT22;17348;50.948;10.696;2023-07-13T04:11:22;16.50;99.90
30572;DHT22;17348;50.948;10.696;2023-07-13T04:14:24;16.50;99.90
30572;DHT22;17348;50.948;10.696;2023-07-13T04:17:27;16.50;99.90
30572;DHT22;17348;50.948;10.696;2023-07-13T04:20:29;16.60;99.90
30572;DHT22;17348;50.948;10.696;2023-07-13T04:23:31;16.60;99.90
30572;DHT22;17348;50.948;10.696;2023-07-13T04:26:35;16.70;99.90
30572;DHT22;17348;50.948;10.696;2023-07-13T04:29:39;16.70;99.90
30572;DHT22;17348;50.948;10.696;2023-07-13T04:32:41;16.80;99.90
30572;DHT22;17348;50.948;10.696;2023-07-13T04:35:44;16.80;99.90
30572;DHT22;17348;50.948;10.696;2023-07-13T04:38:47;16.90;99.90
30572;DHT22;17348;50.948;10.696;2023-07-13T04:41:52;16.90;99.90
30572;DHT22;17348;50.948;10.696;2023-07-13T04:44:54;17.00;99.90
30572;DHT22;17348;50.948;10.696;2023-07-13T04:47:57;17.10;99.90
30572;DHT22;17348;50.948;10.696;2023-07-13T04:50:59;17.20;99.90
30572;DHT22;17348;50.948;10.696;2023-07-13T04:54:02;17.30;99.90
30572;DHT22;17348;50.948;10.696;2023-07-13T04:57:07;17.50;99.90
30572;DHT22;17348;50.948;10.696;2023-07-13T05:00:11;17.60;99.90
30572;DHT22;17348;50.948;10.696;2023-07-13T05:03:13;17.60;99.90
30572;DHT22;17348;50.948;10.696;2023-07-13T05:06:16;17.60;99.90
30572;DHT22;17348;50.948;10.696;2023-07-13T05:09:18;17.70;99.90
30572;DHT22;17348;50.948;10.696;2023-07-13T05:12:22;17.70;99.90
30572;DHT22;17348;50.948;10.696;2023-07-13T05:15:24;17.70;99.90
30572;DHT22;17348;50.948;10.696;2023-07-13T05:18:27;17.70;99.90
30572;DHT22;17348;50.948;10.696;2023-07-13T05:21:29;17.80;99.90
30572;DHT22;17348;50.948;10.696;2023-07-13T05:24:32;17.90;99.90
30572;DHT22;17348;50.948;10.696;2023-07-13T05:27:36;18.00;99.90
30572;DHT22;17348;50.948;10.696;2023-07-13T05:30:38;18.10;99.90
30572;DHT22;17348;50.948;10.696;2023-07-13T05:33:41;18.20;99.90
30572;DHT22;17348;50.948;10.696;2023-07-13T05:36:43;18.30;99.90
30572;DHT22;17348;50.948;10.696;2023-07-13T05:39:46;18.50;99.90
30572;DHT22;17348;50.948;10.696;2023-07-13T05:42:49;18.50;99.90
30572;DHT22;17348;50.948;10.696;2023-07-13T05:45:53;18.60;99.90
30572;DHT22;17348;50.948;10.696;2023-07-13T05:48:56;18.70;99.90
30572;DHT22;17348;50.948;10.696;2023-07-13T05:51:58;18.80;99.90
30572;DHT22;17348;50.948;10.696;2023-07-13T05:55:00;18.80;99.90
30572;DHT22;17348;50.948;10.696;2023-07-13T05:58:05;18.90;99.90
30572;DHT22;17348;50.948;10.696;2023-07-13T06:01:11;19.00;99.90
30572;DHT22;17348;50.948;10.696;2023-07-13T06:04:13;19.10;99.90
30572;DHT22;17348;50.948;10.696;2023-07-13T06:07:15;19.20;99.90
30572;DHT22;17348;50.948;10.696;2023-07-13T06:10:18;19.30;99.90
30572;DHT22;17348;50.948;10.696;2023-07-13T06:13:22;19.40;99.90
30572;DHT22;17348;50.948;10.696;2023-07-13T06:16:24;19.50;99.90
30572;DHT22;17348;50.948;10.696;2023-07-13T06:19:26;19.60;99.90
30572;DHT22;17348;50.948;10.696;2023-07-13T06:22:30;19.70;99.90
30572;DHT22;17348;50.948;10.696;2023-07-13T06:25:33;19.80;99.90
30572;DHT22;17348;50.948;10.696;2023-07-13T06:28:37;19.90;99.90
30572;DHT22;17348;50.948;10.696;2023-07-13T06:31:40;20.00;99.90
30572;DHT22;17348;50.948;10.696;2023-07-13T06:34:43;20.00;99.90
30572;DHT22;17348;50.948;10.696;2023-07-13T06:37:46;20.10;99.90
30572;DHT22;17348;50.948;10.696;2023-07-13T06:40:48;20.10;99.90
30572;DHT22;17348;50.948;10.696;2023-07-13T06:43:52;20.20;99.90
30572;DHT22;17348;50.948;10.696;2023-07-13T06:46:54;20.20;99.90
30572;DHT22;17348;50.948;10.696;2023-07-13T06:49:59;20.20;99.90
30572;DHT22;17348;50.948;10.696;2023-07-13T06:53:01;20.30;99.90
30572;DHT22;17348;50.948;10.696;2023-07-13T06:56:04;20.30;99.90
30572;DHT22;17348;50.948;10.696;2023-07-13T06:59:08;20.40;99.90
30572;DHT22;17348;50.948;10.696;2023-07-13T07:02:11;20.40;99.90
30572;DHT22;17348;50.948;10.696;2023-07-13T07:05:13;20.50;99.90
30572;DHT22;17348;50.948;10.696;2023-07-13T07:08:16;20.50;99.90
30572;DHT22;17348;50.948;10.696;2023-07-13T07:11:20;20.40;99.90
30572;DHT22;17348;50.948;10.696;2023-07-13T07:14:24;20.40;99.90
30572;DHT22;17348;50.948;10.696;2023-07-13T07:17:26;20.30;99.90
30572;DHT22;17348;50.948;10.696;2023-07-13T07:20:29;20.30;99.90
30572;DHT22;17348;50.948;10.696;2023-07-13T07:23:31;20.30;99.90
30572;DHT22;17348;50.948;10.696;2023-07-13T07:26:34;20.30;99.90
30572;DHT22;17348;50.948;10.696;2023-07-13T07:29:38;20.30;99.90
30572;DHT22;17348;50.948;10.696;2023-07-13T07:32:40;20.40;99.90
30572;DHT22;17348;50.948;10.696;2023-07-13T07:35:43;20.40;99.90
30572;DHT22;17348;50.948;10.696;2023-07-13T07:38:45;20.40;99.90
30572;DHT22;17348;50.948;10.696;2023-07-13T07:41:47;20.40;99.90
30572;DHT22;17348;50.948;10.696;2023-07-13T07:44:52;20.40;99.90
30572;DHT22;17348;50.948;10.696;2023-07-13T07:47:55;20.50;99.90
30572;DHT22;17348;50.948;10.696;2023-07-13T07:51:00;20.70;99.90
30572;DHT22;17348;50.948;10.696;2023-07-13T07:54:02;20.70;99.90
30572;DHT22;17348;50.948;10.696;2023-07-13T07:57:06;20.90;99.90
30572;DHT22;17348;50.948;10.696;2023-07-13T08:00:11;21.00;99.90
30572;DHT22;17348;50.948;10.696;2023-07-13T08:03:14;21.20;99.90
30572;DHT22;17348;50.948;10.696;2023-07-13T08:06:16;21.20;99.90
30572;DHT22;17348;50.948;10.696;2023-07-13T08:09:20;21.40;99.90
30572;DHT22;17348;50.948;10.696;2023-07-13T08:12:23;21.50;99.90
30572;DHT22;17348;50.948;10.696;2023-07-13T08:15:26;21.60;99.90
30572;DHT22;17348;50.948;10.696;2023-07-13T08:18:29;21.70;99.90
30572;DHT22;17348;50.948;10.696;2023-07-13T08:21:31;21.80;99.90
30572;DHT22;17348;50.948;10.696;2023-07-13T08:24:34;21.80;99.60
30572;DHT22;17348;50.948;10.696;2023-07-13T08:27:36;21.80;98.40
30572;DHT22;17348;50.948;10.696;2023-07-13T08:30:40;22.00;98.00
30572;DHT22;17348;50.948;10.696;2023-07-13T08:33:43;22.10;97.90
30572;DHT22;17348;50.948;10.696;2023-07-13T08:36:45;22.20;97.00
30572;DHT22;17348;50.948;10.696;2023-07-13T08:39:47;22.30;97.00
30572;DHT22;17348;50.948;10.696;2023-07-13T08:42:54;22.30;96.60
30572;DHT22;17348;50.948;10.696;2023-07-13T08:46:01;22.30;96.80
30572;DHT22;17348;50.948;10.696;2023-07-13T08:49:09;22.30;97.00
30572;DHT22;17348;50.948;10.696;2023-07-13T08:52:17;22.40;97.50
30572;DHT22;17348;50.948;10.696;2023-07-13T08:55:27;22.60;96.90
30572;DHT22;17348;50.948;10.696;2023-07-13T08:58:33;22.70;96.70
30572;DHT22;17348;50.948;10.696;2023-07-13T09:01:52;22.80;96.30
30572;DHT22;17348;50.948;10.696;2023-07-13T09:05:00;22.90;96.00
30572;DHT22;17348;50.948;10.696;2023-07-13T09:08:14;22.90;95.60
30572;DHT22;17348;50.948;10.696;2023-07-13T09:11:31;22.90;95.10
30572;DHT22;17348;50.948;10.696;2023-07-13T09:14:43;22.90;95.50
30572;DHT22;17348;50.948;10.696;2023-07-13T09:17:49;23.10;95.10
30572;DHT22;17348;50.948;10.696;2023-07-13T09:20:57;23.00;94.40
30572;DHT22;17348;50.948;10.696;2023-07-13T09:24:06;23.10;94.00
30572;DHT22;17348;50.948;10.696;2023-07-13T09:27:19;23.10;94.50
30572;DHT22;17348;50.948;10.696;2023-07-13T09:30:30;23.20;93.80
30572;DHT22;17348;50.948;10.696;2023-07-13T09:33:36;23.30;93.90
30572;DHT22;17348;50.948;10.696;2023-07-13T09:36:39;23.50;93.80
30572;DHT22;17348;50.948;10.696;2023-07-13T09:39:42;23.80;93.00
30572;DHT22;17348;50.948;10.696;2023-07-13T09:42:45;23.90;92.60
30572;DHT22;17348;50.948;10.696;2023-07-13T09:45:47;24.10;92.60
30572;DHT22;17348;50.948;10.696;2023-07-13T09:48:51;24.20;92.00
30572;DHT22;17348;50.948;10.696;2023-07-13T09:51:58;24.30;91.60
30572;DHT22;17348;50.948;10.696;2023-07-13T09:55:02;24.20;91.60
30572;DHT22;17348;50.948;10.696;2023-07-13T09:58:05;24.20;91.90
30572;DHT22;17348;50.948;10.696;2023-07-13T10:01:11;24.50;91.80
30572;DHT22;17348;50.948;10.696;2023-07-13T10:04:18;25.00;90.50
30572;DHT22;17348;50.948;10.696;2023-07-13T10:07:22;25.10;88.90
30572;DHT22;17348;50.948;10.696;2023-07-13T10:10:25;25.20;88.90
30572;DHT22;17348;50.948;10.696;2023-07-13T10:13:30;25.10;88.80
30572;DHT22;17348;50.948;10.696;2023-07-13T10:16:34;25.00;90.10
30572;DHT22;17348;50.948;10.696;2023-07-13T10:19:39;25.10;89.30
30572;DHT22;17348;50.948;10.696;2023-07-13T10:22:49;25.00;89.00
30572;DHT22;17348;50.948;10.696;2023-07-13T10:25:52;24.90;90.00
30572;DHT22;17348;50.948;10.696;2023-07-13T10:28:57;24.70;89.30
30572;DHT22;17348;50.948;10.696;2023-07-13T10:32:01;24.50;90.10
30572;DHT22;17348;50.948;10.696;2023-07-13T10:35:08;24.30;90.20
30572;DHT22;17348;50.948;10.696;2023-07-13T10:38:13;24.50;90.20
30572;DHT22;17348;50.948;10.696;2023-07-13T10:41:18;24.70;89.80
30572;DHT22;17348;50.948;10.696;2023-07-13T10:44:25;24.80;88.60
30572;DHT22;17348;50.948;10.696;2023-07-13T10:47:29;24.70;88.90
30572;DHT22;17348;50.948;10.696;2023-07-13T10:50:35;24.80;90.10
30572;DHT22;17348;50.948;10.696;2023-07-13T10:53:40;25.00;88.60
30572;DHT22;17348;50.948;10.696;2023-07-13T10:56:42;24.90;87.30
30572;DHT22;17348;50.948;10.696;2023-07-13T10:59:47;25.00;87.20
30572;DHT22;17348;50.948;10.696;2023-07-13T11:02:56;25.10;88.20
30572;DHT22;17348;50.948;10.696;2023-07-13T11:06:09;25.10;86.60
30572;DHT22;17348;50.948;10.696;2023-07-13T11:09:37;25.20;84.80
30572;DHT22;17348;50.948;10.696;2023-07-13T11:12:52;25.20;85.90
30572;DHT22;17348;50.948;10.696;2023-07-13T11:15:54;25.00;85.10
30572;DHT22;17348;50.948;10.696;2023-07-13T11:22:47;24.70;86.00
30572;DHT22;17348;50.948;10.696;2023-07-13T11:25:49;25.00;86.40
30572;DHT22;17348;50.948;10.696;2023-07-13T11:28:52;25.20;86.20
30572;DHT22;17348;50.948;10.696;2023-07-13T11:31:56;25.50;86.40
30572;DHT22;17348;50.948;10.696;2023-07-13T11:34:59;25.60;83.90
30572;DHT22;17348;50.948;10.696;2023-07-13T11:38:03;25.60;82.90
30572;DHT22;17348;50.948;10.696;2023-07-13T11:41:14;25.70;82.60
30572;DHT22;17348;50.948;10.696;2023-07-13T11:44:18;25.90;83.40
30572;DHT22;17348;50.948;10.696;2023-07-13T11:47:22;26.20;83.40
30572;DHT22;17348;50.948;10.696;2023-07-13T11:50:27;26.60;82.50
30572;DHT22;17348;50.948;10.696;2023-07-13T11:53:36;26.90;83.10
30572;DHT22;17348;50.948;10.696;2023-07-13T11:56:40;27.00;80.60
30572;DHT22;17348;50.948;10.696;2023-07-13T11:59:43;26.80;81.50
30572;DHT22;17348;50.948;10.696;2023-07-13T12:02:47;26.60;81.90
30572;DHT22;17348;50.948;10.696;2023-07-13T12:05:59;26.40;81.10
30572;DHT22;17348;50.948;10.696;2023-07-13T12:09:11;26.40;81.30
30572;DHT22;17348;50.948;10.696;2023-07-13T12:12:17;26.50;81.30
30572;DHT22;17348;50.948;10.696;2023-07-13T12:15:20;26.70;82.00
30572;DHT22;17348;50.948;10.696;2023-07-13T12:18:29;26.70;81.80
30572;DHT22;17348;50.948;10.696;2023-07-13T12:21:33;26.60;81.20
30572;DHT22;17348;50.948;10.696;2023-07-13T12:24:38;26.60;80.90
30572;DHT22;17348;50.948;10.696;2023-07-13T12:27:41;26.50;80.90
30572;DHT22;17348;50.948;10.696;2023-07-13T12:30:48;26.50;80.70
30572;DHT22;17348;50.948;10.696;2023-07-13T12:33:57;26.20;80.00
30572;DHT22;17348;50.948;10.696;2023-07-13T12:37:01;26.00;81.30
30572;DHT22;17348;50.948;10.696;2023-07-13T12:40:12;25.90;81.60
30572;DHT22;17348;50.948;10.696;2023-07-13T12:43:15;26.00;81.70
30572;DHT22;17348;50.948;10.696;2023-07-13T12:46:20;26.00;81.10
30572;DHT22;17348;50.948;10.696;2023-07-13T12:49:26;26.00;83.40
30572;DHT22;17348;50.948;10.696;2023-07-13T12:52:31;26.20;82.30
30572;DHT22;17348;50.948;10.696;2023-07-13T12:55:42;26.50;81.70
30572;DHT22;17348;50.948;10.696;2023-07-13T12:58:46;26.60;81.40
30572;DHT22;17348;50.948;10.696;2023-07-13T13:01:55;26.60;81.60
30572;DHT22;17348;50.948;10.696;2023-07-13T13:04:58;26.40;81.10
30572;DHT22;17348;50.948;10.696;2023-07-13T13:08:00;26.10;81.40
30572;DHT22;17348;50.948;10.696;2023-07-13T13:11:04;25.80;81.50
30572;DHT22;17348;50.948;10.696;2023-07-13T13:14:07;25.80;82.40
30572;DHT22;17348;50.948;10.696;2023-07-13T13:17:18;25.80;83.20
30572;DHT22;17348;50.948;10.696;2023-07-13T13:20:22;25.60;82.70
30572;DHT22;17348;50.948;10.696;2023-07-13T13:23:26;25.60;83.00
30572;DHT22;17348;50.948;10.696;2023-07-13T13:26:30;25.90;82.90
30572;DHT22;17348;50.948;10.696;2023-07-13T13:29:36;26.30;82.10
30572;DHT22;17348;50.948;10.696;2023-07-13T13:32:41;26.70;81.30
30572;DHT22;17348;50.948;10.696;2023-07-13T13:35:44;26.90;80.10
30572;DHT22;17348;50.948;10.696;2023-07-13T13:38:47;27.10;78.70
30572;DHT22;17348;50.948;10.696;2023-07-13T13:41:52;27.20;79.20
30572;DHT22;17348;50.948;10.696;2023-07-13T13:44:55;27.30;77.70
30572;DHT22;17348;50.948;10.696;2023-07-13T13:47:57;27.20;77.80
30572;DHT22;17348;50.948;10.696;2023-07-13T13:51:01;27.20;77.60
30572;DHT22;17348;50.948;10.696;2023-07-13T13:54:11;27.20;78.00
30572;DHT22;17348;50.948;10.696;2023-07-13T13:57:14;27.00;78.00
30572;DHT22;17348;50.948;10.696;2023-07-13T14:00:17;26.90;78.00
30572;DHT22;17348;50.948;10.696;2023-07-13T14:03:21;26.50;78.70
30572;DHT22;17348;50.948;10.696;2023-07-13T14:06:23;26.50;79.60
30572;DHT22;17348;50.948;10.696;2023-07-13T14:09:26;26.50;79.90
30572;DHT22;17348;50.948;10.696;2023-07-13T14:12:29;26.40;78.50
30572;DHT22;17348;50.948;10.696;2023-07-13T14:15:32;26.40;79.20
30572;DHT22;17348;50.948;10.696;2023-07-13T14:18:35;26.30;79.00
30572;DHT22;17348;50.948;10.696;2023-07-13T14:21:37;26.10;79.30
30572;DHT22;17348;50.948;10.696;2023-07-13T14:24:39;26.30;79.50
30572;DHT22;17348;50.948;10.696;2023-07-13T14:27:44;26.50;80.50
30572;DHT22;17348;50.948;10.696;2023-07-13T14:30:47;26.50;78.30
30572;DHT22;17348;50.948;10.696;2023-07-13T14:33:49;26.40;78.60
30572;DHT22;17348;50.948;10.696;2023-07-13T14:36:51;26.30;79.80
30572;DHT22;17348;50.948;10.696;2023-07-13T14:39:54;26.10;78.70
30572;DHT22;17348;50.948;10.696;2023-07-13T14:42:58;26.30;79.90
30572;DHT22;17348;50.948;10.696;2023-07-13T14:46:00;26.30;78.70
30572;DHT22;17348;50.948;10.696;2023-07-13T14:49:05;26.10;79.10
30572;DHT22;17348;50.948;10.696;2023-07-13T14:52:12;26.00;79.40
30572;DHT22;17348;50.948;10.696;2023-07-13T14:55:17;25.80;79.70
30572;DHT22;17348;50.948;10.696;2023-07-13T14:58:20;25.60;80.00
30572;DHT22;17348;50.948;10.696;2023-07-13T15:01:24;25.80;80.20
30572;DHT22;17348;50.948;10.696;2023-07-13T15:04:26;25.70;80.80
30572;DHT22;17348;50.948;10.696;2023-07-13T15:07:28;25.60;80.60
30572;DHT22;17348;50.948;10.696;2023-07-13T15:10:32;25.50;81.00
30572;DHT22;17348;50.948;10.696;2023-07-13T15:13:39;25.50;80.50
30572;DHT22;17348;50.948;10.696;2023-07-13T15:16:41;25.40;81.80
30572;DHT22;17348;50.948;10.696;2023-07-13T15:19:44;25.20;82.30
30572;DHT22;17348;50.948;10.696;2023-07-13T15:22:46;25.10;82.70
30572;DHT22;17348;50.948;10.696;2023-07-13T15:25:49;25.00;83.70
30572;DHT22;17348;50.948;10.696;2023-07-13T15:28:53;25.00;83.50
30572;DHT22;17348;50.948;10.696;2023-07-13T15:31:56;25.00;83.50
30572;DHT22;17348;50.948;10.696;2023-07-13T15:34:58;25.00;83.60
30572;DHT22;17348;50.948;10.696;2023-07-13T15:38:00;25.00;83.20
30572;DHT22;17348;50.948;10.696;2023-07-13T15:41:13;25.00;83.50
30572;DHT22;17348;50.948;10.696;2023-07-13T15:44:27;24.90;83.60
30572;DHT22;17348;50.948;10.696;2023-07-13T15:47:30;24.80;83.20
30572;DHT22;17348;50.948;10.696;2023-07-13T15:50:42;24.80;83.70
30572;DHT22;17348;50.948;10.696;2023-07-13T15:53:45;24.80;83.60
30572;DHT22;17348;50.948;10.696;2023-07-13T15:56:52;24.80;82.90
30572;DHT22;17348;50.948;10.696;2023-07-13T15:59:56;24.80;83.00
30572;DHT22;17348;50.948;10.696;2023-07-13T16:03:00;24.70;82.20
30572;DHT22;17348;50.948;10.696;2023-07-13T16:06:09;24.60;82.30
30572;DHT22;17348;50.948;10.696;2023-07-13T16:09:19;24.60;82.60
30572;DHT22;17348;50.948;10.696;2023-07-13T16:12:23;24.50;82.20
30572;DHT22;17348;50.948;10.696;2023-07-13T16:15:27;24.40;83.00
30572;DHT22;17348;50.948;10.696;2023-07-13T16:18:29;24.50;83.70
30572;DHT22;17348;50.948;10.696;2023-07-13T16:21:33;24.50;83.60
30572;DHT22;17348;50.948;10.696;2023-07-13T16:24:37;24.50;83.60
30572;DHT22;17348;50.948;10.696;2023-07-13T16:27:39;24.50;83.60
30572;DHT22;17348;50.948;10.696;2023-07-13T16:30:43;24.40;84.80
30572;DHT22;17348;50.948;10.696;2023-07-13T16:33:45;24.40;84.60
30572;DHT22;17348;50.948;10.696;2023-07-13T16:36:48;24.50;85.10
30572;DHT22;17348;50.948;10.696;2023-07-13T16:39:52;24.40;84.50
30572;DHT22;17348;50.948;10.696;2023-07-13T16:42:57;24.40;84.80
30572;DHT22;17348;50.948;10.696;2023-07-13T16:46:01;24.30;84.80
30572;DHT22;17348;50.948;10.696;2023-07-13T16:49:07;24.30;85.50
30572;DHT22;17348;50.948;10.696;2023-07-13T16:52:15;24.30;87.00
30572;DHT22;17348;50.948;10.696;2023-07-13T16:55:21;24.40;86.30
30572;DHT22;17348;50.948;10.696;2023-07-13T16:58:29;24.40;85.40
30572;DHT22;17348;50.948;10.696;2023-07-13T17:01:33;24.40;86.00
30572;DHT22;17348;50.948;10.696;2023-07-13T17:04:40;24.20;87.10
30572;DHT22;17348;50.948;10.696;2023-07-13T17:07:43;24.10;86.40
30572;DHT22;17348;50.948;10.696;2023-07-13T17:10:47;24.10;86.30
30572;DHT22;17348;50.948;10.696;2023-07-13T17:13:50;24.10;87.20
30572;DHT22;17348;50.948;10.696;2023-07-13T17:16:55;24.00;87.70
30572;DHT22;17348;50.948;10.696;2023-07-13T17:19:59;24.00;86.80
30572;DHT22;17348;50.948;10.696;2023-07-13T17:23:02;23.90;87.30
30572;DHT22;17348;50.948;10.696;2023-07-13T17:26:04;23.80;87.30
30572;DHT22;17348;50.948;10.696;2023-07-13T17:29:07;23.70;87.90
30572;DHT22;17348;50.948;10.696;2023-07-13T17:32:15;23.70;88.30
30572;DHT22;17348;50.948;10.696;2023-07-13T17:35:26;23.60;89.10
30572;DHT22;17348;50.948;10.696;2023-07-13T17:38:31;23.50;88.90
30572;DHT22;17348;50.948;10.696;2023-07-13T17:41:36;23.40;88.80
30572;DHT22;17348;50.948;10.696;2023-07-13T17:44:39;23.40;89.40
30572;DHT22;17348;50.948;10.696;2023-07-13T17:47:43;23.60;89.10
30572;DHT22;17348;50.948;10.696;2023-07-13T17:50:45;23.50;89.00
30572;DHT22;17348;50.948;10.696;2023-07-13T17:53:51;23.60;89.50
30572;DHT22;17348;50.948;10.696;2023-07-13T17:56:53;23.60;89.70
30572;DHT22;17348;50.948;10.696;2023-07-13T17:59:56;23.70;89.00
30572;DHT22;17348;50.948;10.696;2023-07-13T18:03:01;23.60;89.30
30572;DHT22;17348;50.948;10.696;2023-07-13T18:06:11;23.60;90.00
30572;DHT22;17348;50.948;10.696;2023-07-13T18:09:19;23.60;90.00
30572;DHT22;17348;50.948;10.696;2023-07-13T18:12:21;23.50;90.00
30572;DHT22;17348;50.948;10.696;2023-07-13T18:15:27;23.50;90.20
30572;DHT22;17348;50.948;10.696;2023-07-13T18:18:34;23.40;90.20
30572;DHT22;17348;50.948;10.696;2023-07-13T18:21:37;23.30;90.30
30572;DHT22;17348;50.948;10.696;2023-07-13T18:24:39;23.30;90.60
30572;DHT22;17348;50.948;10.696;2023-07-13T18:27:41;23.20;90.70
30572;DHT22;17348;50.948;10.696;2023-07-13T18:30:45;23.00;91.10
30572;DHT22;17348;50.948;10.696;2023-07-13T18:33:53;22.90;91.10
30572;DHT22;17348;50.948;10.696;2023-07-13T18:36:56;22.90;91.20
30572;DHT22;17348;50.948;10.696;2023-07-13T18:39:59;22.70;91.30
30572;DHT22;17348;50.948;10.696;2023-07-13T18:43:03;22.70;91.50
30572;DHT22;17348;50.948;10.696;2023-07-13T18:46:13;22.60;91.70
30572;DHT22;17348;50.948;10.696;2023-07-13T18:49:20;22.50;91.80
30572;DHT22;17348;50.948;10.696;2023-07-13T18:52:23;22.50;91.90
30572;DHT22;17348;50.948;10.696;2023-07-13T18:55:26;22.40;92.00
30572;DHT22;17348;50.948;10.696;2023-07-13T18:58:28;22.40;92.10
30572;DHT22;17348;50.948;10.696;2023-07-13T19:01:32;22.40;92.30
30572;DHT22;17348;50.948;10.696;2023-07-13T19:04:37;22.30;92.30
30572;DHT22;17348;50.948;10.696;2023-07-13T19:07:39;22.20;92.40